sensor_id;sensor_type;location;lat;lon;timestamp;P1;durP1;ratioP1;P2;durP2;ratioP2
54025;SDS011;74404;50.662;3.398;2024-03-25T00:01:26;14.80;;;4.57;;
54025;SDS011;74404;50.662;3.398;2024-03-25T00:03:51;12.02;;;4.45;;
54025;SDS011;74404;50.662;3.398;2024-03-25T00:06:17;15.73;;;4.43;;
54025;SDS011;74404;50.662;3.398;2024-03-25T00:08:42;12.90;;;4.43;;
54025;SDS011;74404;50.662;3.398;2024-03-25T00:11:08;11.43;;;4.45;;
54025;SDS011;74404;50.662;3.398;2024-03-25T00:13:33;9.68;;;4.88;;
54025;SDS011;74404;50.662;3.398;2024-03-25T00:15:58;11.35;;;4.63;;
54025;SDS011;74404;50.662;3.398;2024-03-25T00:18:24;11.57;;;4.53;;
54025;SDS011;74404;50.662;3.398;2024-03-25T00:20:49;15.48;;;4.88;;
54025;SDS011;74404;50.662;3.398;2024-03-25T00:23:16;13.23;;;4.90;;
54025;SDS011;74404;50.662;3.398;2024-03-25T00:25:42;13.15;;;4.60;;
54025;SDS011;74404;50.662;3.398;2024-03-25T00:28:07;16.60;;;4.75;;
54025;SDS011;74404;50.662;3.398;2024-03-25T00:30:33;15.13;;;5.10;;
54025;SDS011;74404;50.662;3.398;2024-03-25T00:32:59;11.05;;;4.68;;
54025;SDS011;74404;50.662;3.398;2024-03-25T00:35:24;10.85;;;4.25;;
54025;SDS011;74404;50.662;3.398;2024-03-25T00:37:50;11.80;;;4.90;;
54025;SDS011;74404;50.662;3.398;2024-03-25T00:40:15;16.30;;;4.53;;
54025;SDS011;74404;50.662;3.398;2024-03-25T00:42:41;11.05;;;4.30;;
54025;SDS011;74404;50.662;3.398;2024-03-25T00:45:06;12.60;;;4.63;;
54025;SDS011;74404;50.662;3.398;2024-03-25T00:47:32;12.48;;;4.68;;
54025;SDS011;74404;50.662;3.398;2024-03-25T00:49:58;11.75;;;4.60;;
54025;SDS011;74404;50.662;3.398;2024-03-25T00:52:24;13.45;;;4.75;;
54025;SDS011;74404;50.662;3.398;2024-03-25T00:54:49;14.27;;;4.40;;
54025;SDS011;74404;50.662;3.398;2024-03-25T00:57:14;13.10;;;4.68;;
54025;SDS011;74404;50.662;3.398;2024-03-25T00:59:40;9.70;;;4.50;;
54025;SDS011;74404;50.662;3.398;2024-03-25T01:02:06;14.65;;;4.63;;
54025;SDS011;74404;50.662;3.398;2024-03-25T01:04:31;16.02;;;5.07;;
54025;SDS011;74404;50.662;3.398;2024-03-25T01:06:58;15.65;;;5.13;;
54025;SDS011;74404;50.662;3.398;2024-03-25T01:09:23;16.10;;;5.10;;
54025;SDS011;74404;50.662;3.398;2024-03-25T01:11:50;18.30;;;4.53;;
54025;SDS011;74404;50.662;3.398;2024-03-25T01:14:16;13.48;;;4.35;;
54025;SDS011;74404;50.662;3.398;2024-03-25T01:16:41;11.80;;;4.55;;
54025;SDS011;74404;50.662;3.398;2024-03-25T01:19:08;12.13;;;3.92;;
54025;SDS011;74404;50.662;3.398;2024-03-25T01:21:33;16.70;;;5.22;;
54025;SDS011;74404;50.662;3.398;2024-03-25T01:23:59;13.88;;;4.30;;
54025;SDS011;74404;50.662;3.398;2024-03-25T01:26:25;17.58;;;4.97;;
54025;SDS011;74404;50.662;3.398;2024-03-25T01:28:51;16.95;;;4.35;;
54025;SDS011;74404;50.662;3.398;2024-03-25T01:31:17;14.15;;;4.60;;
54025;SDS011;74404;50.662;3.398;2024-03-25T01:33:42;15.38;;;5.15;;
54025;SDS011;74404;50.662;3.398;2024-03-25T01:36:08;13.25;;;4.68;;
54025;SDS011;74404;50.662;3.398;2024-03-25T01:38:36;10.35;;;4.30;;
54025;SDS011;74404;50.662;3.398;2024-03-25T01:41:20;14.60;;;4.90;;
54025;SDS011;74404;50.662;3.398;2024-03-25T01:43:50;14.02;;;4.75;;
54025;SDS011;74404;50.662;3.398;2024-03-25T01:46:18;14.05;;;4.68;;
54025;SDS011;74404;50.662;3.398;2024-03-25T01:48:46;12.18;;;4.45;;
54025;SDS011;74404;50.662;3.398;2024-03-25T01:51:13;12.65;;;4.60;;
54025;SDS011;74404;50.662;3.398;2024-03-25T01:53:41;14.30;;;4.65;;
54025;SDS011;74404;50.662;3.398;2024-03-25T01:56:07;13.65;;;4.65;;
54025;SDS011;74404;50.662;3.398;2024-03-25T01:58:33;11.20;;;4.47;;
54025;SDS011;74404;50.662;3.398;2024-03-25T02:00:59;15.25;;;5.18;;
54025;SDS011;74404;50.662;3.398;2024-03-25T02:03:28;13.45;;;4.35;;
54025;SDS011;74404;50.662;3.398;2024-03-25T02:05:55;14.27;;;4.97;;
54025;SDS011;74404;50.662;3.398;2024-03-25T02:08:25;10.73;;;4.38;;
54025;SDS011;74404;50.662;3.398;2024-03-25T02:10:52;14.00;;;4.65;;
54025;SDS011;74404;50.662;3.398;2024-03-25T02:13:20;13.90;;;4.75;;
54025;SDS011;74404;50.662;3.398;2024-03-25T02:15:46;10.98;;;4.30;;
54025;SDS011;74404;50.662;3.398;2024-03-25T02:18:12;12.27;;;4.80;;
54025;SDS011;74404;50.662;3.398;2024-03-25T02:20:38;11.70;;;4.85;;
54025;SDS011;74404;50.662;3.398;2024-03-25T02:23:04;11.00;;;4.60;;
54025;SDS011;74404;50.662;3.398;2024-03-25T02:25:30;14.80;;;4.53;;
54025;SDS011;74404;50.662;3.398;2024-03-25T02:27:58;14.65;;;5.13;;
54025;SDS011;74404;50.662;3.398;2024-03-25T02:30:23;11.98;;;4.85;;
54025;SDS011;74404;50.662;3.398;2024-03-25T02:32:49;17.63;;;5.25;;
54025;SDS011;74404;50.662;3.398;2024-03-25T02:35:15;15.65;;;5.60;;
54025;SDS011;74404;50.662;3.398;2024-03-25T02:37:41;13.85;;;5.28;;
54025;SDS011;74404;50.662;3.398;2024-03-25T02:40:08;14.45;;;5.20;;
54025;SDS011;74404;50.662;3.398;2024-03-25T02:42:35;14.20;;;5.25;;
54025;SDS011;74404;50.662;3.398;2024-03-25T02:45:01;11.80;;;5.30;;
54025;SDS011;74404;50.662;3.398;2024-03-25T02:47:27;14.23;;;5.30;;
54025;SDS011;74404;50.662;3.398;2024-03-25T02:49:53;18.50;;;5.70;;
54025;SDS011;74404;50.662;3.398;2024-03-25T02:52:19;18.88;;;5.63;;
54025;SDS011;74404;50.662;3.398;2024-03-25T02:54:45;13.88;;;5.57;;
54025;SDS011;74404;50.662;3.398;2024-03-25T02:57:11;15.18;;;5.75;;
54025;SDS011;74404;50.662;3.398;2024-03-25T02:59:36;11.80;;;5.15;;
54025;SDS011;74404;50.662;3.398;2024-03-25T03:02:02;13.63;;;5.63;;
54025;SDS011;74404;50.662;3.398;2024-03-25T03:04:27;18.35;;;5.55;;
54025;SDS011;74404;50.662;3.398;2024-03-25T03:06:52;15.35;;;5.75;;
54025;SDS011;74404;50.662;3.398;2024-03-25T03:09:18;15.25;;;5.65;;
54025;SDS011;74404;50.662;3.398;2024-03-25T03:11:43;17.42;;;5.95;;
54025;SDS011;74404;50.662;3.398;2024-03-25T03:14:09;12.65;;;5.82;;
54025;SDS011;74404;50.662;3.398;2024-03-25T03:16:35;12.32;;;5.75;;
54025;SDS011;74404;50.662;3.398;2024-03-25T03:19:00;13.60;;;5.90;;
54025;SDS011;74404;50.662;3.398;2024-03-25T03:21:26;13.68;;;5.68;;
54025;SDS011;74404;50.662;3.398;2024-03-25T03:23:51;12.57;;;5.80;;
54025;SDS011;74404;50.662;3.398;2024-03-25T03:26:17;13.75;;;5.70;;
54025;SDS011;74404;50.662;3.398;2024-03-25T03:28:42;12.02;;;5.55;;
54025;SDS011;74404;50.662;3.398;2024-03-25T03:31:08;13.43;;;5.68;;
54025;SDS011;74404;50.662;3.398;2024-03-25T03:33:33;12.05;;;5.35;;
54025;SDS011;74404;50.662;3.398;2024-03-25T03:35:59;11.95;;;5.70;;
54025;SDS011;74404;50.662;3.398;2024-03-25T03:38:24;13.45;;;5.20;;
54025;SDS011;74404;50.662;3.398;2024-03-25T03:40:57;11.75;;;5.60;;
54025;SDS011;74404;50.662;3.398;2024-03-25T03:43:23;13.43;;;5.82;;
54025;SDS011;74404;50.662;3.398;2024-03-25T03:45:48;10.23;;;5.30;;
54025;SDS011;74404;50.662;3.398;2024-03-25T03:48:14;10.75;;;5.40;;
54025;SDS011;74404;50.662;3.398;2024-03-25T03:50:39;13.15;;;5.60;;
54025;SDS011;74404;50.662;3.398;2024-03-25T03:53:04;13.85;;;5.53;;
54025;SDS011;74404;50.662;3.398;2024-03-25T03:55:30;11.98;;;5.10;;
54025;SDS011;74404;50.662;3.398;2024-03-25T03:57:55;12.68;;;5.90;;
54025;SDS011;74404;50.662;3.398;2024-03-25T04:00:21;13.18;;;5.38;;
54025;SDS011;74404;50.662;3.398;2024-03-25T04:02:46;12.60;;;5.22;;
54025;SDS011;74404;50.662;3.398;2024-03-25T04:05:11;9.20;;;4.80;;
54025;SDS011;74404;50.662;3.398;2024-03-25T04:07:37;11.48;;;5.10;;
54025;SDS011;74404;50.662;3.398;2024-03-25T04:10:03;11.85;;;5.40;;
54025;SDS011;74404;50.662;3.398;2024-03-25T04:12:29;13.32;;;5.60;;
54025;SDS011;74404;50.662;3.398;2024-03-25T04:14:55;12.07;;;5.07;;
54025;SDS011;74404;50.662;3.398;2024-03-25T04:17:21;11.93;;;5.28;;
54025;SDS011;74404;50.662;3.398;2024-03-25T04:19:48;12.10;;;5.80;;
54025;SDS011;74404;50.662;3.398;2024-03-25T04:22:14;10.73;;;5.30;;
54025;SDS011;74404;50.662;3.398;2024-03-25T04:24:40;14.68;;;4.97;;
54025;SDS011;74404;50.662;3.398;2024-03-25T04:27:05;11.73;;;5.35;;
54025;SDS011;74404;50.662;3.398;2024-03-25T04:29:31;12.88;;;5.53;;
54025;SDS011;74404;50.662;3.398;2024-03-25T04:31:56;10.48;;;5.28;;
54025;SDS011;74404;50.662;3.398;2024-03-25T04:34:21;10.32;;;5.25;;
54025;SDS011;74404;50.662;3.398;2024-03-25T04:36:48;13.48;;;5.60;;
54025;SDS011;74404;50.662;3.398;2024-03-25T04:39:14;14.63;;;5.65;;
54025;SDS011;74404;50.662;3.398;2024-03-25T04:41:39;13.77;;;5.88;;
54025;SDS011;74404;50.662;3.398;2024-03-25T04:44:05;15.07;;;6.55;;
54025;SDS011;74404;50.662;3.398;2024-03-25T04:46:31;11.65;;;5.68;;
54025;SDS011;74404;50.662;3.398;2024-03-25T04:48:56;16.42;;;6.38;;
54025;SDS011;74404;50.662;3.398;2024-03-25T04:51:22;13.90;;;5.65;;
54025;SDS011;74404;50.662;3.398;2024-03-25T04:53:47;12.55;;;5.35;;
54025;SDS011;74404;50.662;3.398;2024-03-25T04:56:13;13.00;;;5.75;;
54025;SDS011;74404;50.662;3.398;2024-03-25T04:58:38;11.02;;;6.20;;
54025;SDS011;74404;50.662;3.398;2024-03-25T05:01:04;13.23;;;5.90;;
54025;SDS011;74404;50.662;3.398;2024-03-25T05:03:30;14.70;;;6.40;;
54025;SDS011;74404;50.662;3.398;2024-03-25T05:05:55;14.63;;;6.72;;
54025;SDS011;74404;50.662;3.398;2024-03-25T05:08:21;10.40;;;6.00;;
54025;SDS011;74404;50.662;3.398;2024-03-25T05:10:47;13.35;;;6.28;;
54025;SDS011;74404;50.662;3.398;2024-03-25T05:13:12;14.40;;;6.75;;
54025;SDS011;74404;50.662;3.398;2024-03-25T05:15:38;14.25;;;6.85;;
54025;SDS011;74404;50.662;3.398;2024-03-25T05:18:03;15.23;;;6.82;;
54025;SDS011;74404;50.662;3.398;2024-03-25T05:20:29;14.30;;;6.60;;
54025;SDS011;74404;50.662;3.398;2024-03-25T05:22:54;16.38;;;7.32;;
54025;SDS011;74404;50.662;3.398;2024-03-25T05:25:20;18.13;;;8.43;;
54025;SDS011;74404;50.662;3.398;2024-03-25T05:27:49;18.27;;;8.88;;
54025;SDS011;74404;50.662;3.398;2024-03-25T05:30:15;20.33;;;9.38;;
54025;SDS011;74404;50.662;3.398;2024-03-25T05:32:40;23.05;;;10.38;;
54025;SDS011;74404;50.662;3.398;2024-03-25T05:35:06;20.40;;;10.32;;
54025;SDS011;74404;50.662;3.398;2024-03-25T05:37:32;27.15;;;11.10;;
54025;SDS011;74404;50.662;3.398;2024-03-25T05:39:59;24.67;;;10.85;;
54025;SDS011;74404;50.662;3.398;2024-03-25T05:42:24;26.50;;;12.10;;
54025;SDS011;74404;50.662;3.398;2024-03-25T05:44:50;28.38;;;11.73;;
54025;SDS011;74404;50.662;3.398;2024-03-25T05:47:15;29.92;;;11.68;;
54025;SDS011;74404;50.662;3.398;2024-03-25T05:49:41;28.95;;;12.35;;
54025;SDS011;74404;50.662;3.398;2024-03-25T05:52:06;28.80;;;12.25;;
54025;SDS011;74404;50.662;3.398;2024-03-25T05:54:32;26.98;;;12.75;;
54025;SDS011;74404;50.662;3.398;2024-03-25T05:56:57;29.65;;;13.65;;
54025;SDS011;74404;50.662;3.398;2024-03-25T05:59:23;31.85;;;13.30;;
54025;SDS011;74404;50.662;3.398;2024-03-25T06:01:48;30.08;;;13.23;;
54025;SDS011;74404;50.662;3.398;2024-03-25T06:04:14;29.80;;;13.82;;
54025;SDS011;74404;50.662;3.398;2024-03-25T06:06:39;31.65;;;13.23;;
54025;SDS011;74404;50.662;3.398;2024-03-25T06:09:04;31.77;;;13.75;;
54025;SDS011;74404;50.662;3.398;2024-03-25T06:11:30;32.90;;;14.02;;
54025;SDS011;74404;50.662;3.398;2024-03-25T06:13:56;33.05;;;13.60;;
54025;SDS011;74404;50.662;3.398;2024-03-25T06:16:21;33.15;;;13.45;;
54025;SDS011;74404;50.662;3.398;2024-03-25T06:18:47;30.25;;;13.18;;
54025;SDS011;74404;50.662;3.398;2024-03-25T06:21:12;36.70;;;14.05;;
54025;SDS011;74404;50.662;3.398;2024-03-25T06:23:38;31.15;;;13.55;;
54025;SDS011;74404;50.662;3.398;2024-03-25T06:26:03;35.35;;;14.45;;
54025;SDS011;74404;50.662;3.398;2024-03-25T06:28:29;34.85;;;15.38;;
54025;SDS011;74404;50.662;3.398;2024-03-25T06:30:54;31.48;;;13.73;;
54025;SDS011;74404;50.662;3.398;2024-03-25T06:33:39;33.95;;;14.05;;
54025;SDS011;74404;50.662;3.398;2024-03-25T06:36:23;38.88;;;15.00;;
54025;SDS011;74404;50.662;3.398;2024-03-25T06:38:48;37.47;;;14.85;;
54025;SDS011;74404;50.662;3.398;2024-03-25T06:41:14;35.65;;;14.60;;
54025;SDS011;74404;50.662;3.398;2024-03-25T06:43:39;39.00;;;14.73;;
54025;SDS011;74404;50.662;3.398;2024-03-25T06:46:06;35.17;;;14.88;;
54025;SDS011;74404;50.662;3.398;2024-03-25T06:48:32;36.85;;;15.23;;
54025;SDS011;74404;50.662;3.398;2024-03-25T06:50:59;40.55;;;14.95;;
54025;SDS011;74404;50.662;3.398;2024-03-25T06:53:25;36.22;;;14.15;;
54025;SDS011;74404;50.662;3.398;2024-03-25T06:55:51;35.80;;;13.85;;
54025;SDS011;74404;50.662;3.398;2024-03-25T06:58:18;35.00;;;14.10;;
54025;SDS011;74404;50.662;3.398;2024-03-25T07:00:45;31.58;;;13.98;;
54025;SDS011;74404;50.662;3.398;2024-03-25T07:03:10;29.60;;;12.60;;
54025;SDS011;74404;50.662;3.398;2024-03-25T07:05:35;34.70;;;13.32;;
54025;SDS011;74404;50.662;3.398;2024-03-25T07:08:01;37.90;;;13.88;;
54025;SDS011;74404;50.662;3.398;2024-03-25T07:10:27;28.27;;;11.60;;
54025;SDS011;74404;50.662;3.398;2024-03-25T07:12:53;28.77;;;11.95;;
54025;SDS011;74404;50.662;3.398;2024-03-25T07:15:18;31.13;;;11.82;;
54025;SDS011;74404;50.662;3.398;2024-03-25T07:17:44;27.27;;;10.85;;
54025;SDS011;74404;50.662;3.398;2024-03-25T07:20:09;29.55;;;10.85;;
54025;SDS011;74404;50.662;3.398;2024-03-25T07:22:36;27.75;;;10.05;;
54025;SDS011;74404;50.662;3.398;2024-03-25T07:25:01;29.08;;;10.18;;
54025;SDS011;74404;50.662;3.398;2024-03-25T07:27:26;29.52;;;10.02;;
54025;SDS011;74404;50.662;3.398;2024-03-25T07:29:52;23.08;;;8.98;;
54025;SDS011;74404;50.662;3.398;2024-03-25T07:32:17;26.80;;;8.90;;
54025;SDS011;74404;50.662;3.398;2024-03-25T07:34:43;22.00;;;9.07;;
54025;SDS011;74404;50.662;3.398;2024-03-25T07:37:08;28.70;;;9.27;;
54025;SDS011;74404;50.662;3.398;2024-03-25T07:39:34;23.83;;;9.52;;
54025;SDS011;74404;50.662;3.398;2024-03-25T07:41:59;24.35;;;9.52;;
54025;SDS011;74404;50.662;3.398;2024-03-25T07:44:25;24.95;;;8.50;;
54025;SDS011;74404;50.662;3.398;2024-03-25T07:46:50;26.58;;;8.93;;
54025;SDS011;74404;50.662;3.398;2024-03-25T07:49:16;22.70;;;8.60;;
54025;SDS011;74404;50.662;3.398;2024-03-25T07:51:42;30.95;;;9.75;;
54025;SDS011;74404;50.662;3.398;2024-03-25T07:54:07;27.52;;;8.70;;
54025;SDS011;74404;50.662;3.398;2024-03-25T07:56:35;26.80;;;9.20;;
54025;SDS011;74404;50.662;3.398;2024-03-25T07:59:02;30.85;;;9.20;;
54025;SDS011;74404;50.662;3.398;2024-03-25T08:01:28;25.55;;;8.73;;
54025;SDS011;74404;50.662;3.398;2024-03-25T08:03:54;24.73;;;9.13;;
54025;SDS011;74404;50.662;3.398;2024-03-25T08:06:19;22.70;;;8.13;;
54025;SDS011;74404;50.662;3.398;2024-03-25T08:08:46;24.67;;;9.27;;
54025;SDS011;74404;50.662;3.398;2024-03-25T08:11:12;16.52;;;8.00;;
54025;SDS011;74404;50.662;3.398;2024-03-25T08:13:37;23.92;;;8.73;;
54025;SDS011;74404;50.662;3.398;2024-03-25T08:16:03;22.90;;;8.63;;
54025;SDS011;74404;50.662;3.398;2024-03-25T08:18:29;21.27;;;7.90;;
54025;SDS011;74404;50.662;3.398;2024-03-25T08:20:54;19.02;;;7.97;;
54025;SDS011;74404;50.662;3.398;2024-03-25T08:23:20;20.92;;;7.68;;
54025;SDS011;74404;50.662;3.398;2024-03-25T08:25:45;16.45;;;7.65;;
54025;SDS011;74404;50.662;3.398;2024-03-25T08:28:11;15.63;;;7.68;;
54025;SDS011;74404;50.662;3.398;2024-03-25T08:30:36;18.25;;;7.55;;
54025;SDS011;74404;50.662;3.398;2024-03-25T08:33:02;18.30;;;7.07;;
54025;SDS011;74404;50.662;3.398;2024-03-25T08:35:27;19.42;;;7.88;;
54025;SDS011;74404;50.662;3.398;2024-03-25T08:37:53;17.40;;;7.50;;
54025;SDS011;74404;50.662;3.398;2024-03-25T08:40:18;15.80;;;7.55;;
54025;SDS011;74404;50.662;3.398;2024-03-25T08:42:44;17.83;;;7.43;;
54025;SDS011;74404;50.662;3.398;2024-03-25T08:45:09;17.13;;;7.28;;
54025;SDS011;74404;50.662;3.398;2024-03-25T08:47:35;17.17;;;7.78;;
54025;SDS011;74404;50.662;3.398;2024-03-25T08:50:00;18.10;;;7.32;;
54025;SDS011;74404;50.662;3.398;2024-03-25T08:52:27;17.90;;;7.53;;
54025;SDS011;74404;50.662;3.398;2024-03-25T08:54:52;16.23;;;7.30;;
54025;SDS011;74404;50.662;3.398;2024-03-25T08:57:18;18.20;;;7.90;;
54025;SDS011;74404;50.662;3.398;2024-03-25T08:59:43;19.65;;;7.97;;
54025;SDS011;74404;50.662;3.398;2024-03-25T09:02:09;15.73;;;7.53;;
54025;SDS011;74404;50.662;3.398;2024-03-25T09:04:34;14.23;;;6.75;;
54025;SDS011;74404;50.662;3.398;2024-03-25T09:07:01;17.35;;;7.45;;
54025;SDS011;74404;50.662;3.398;2024-03-25T09:09:28;18.67;;;7.90;;
54025;SDS011;74404;50.662;3.398;2024-03-25T09:12:12;15.75;;;7.30;;
54025;SDS011;74404;50.662;3.398;2024-03-25T09:14:37;19.67;;;7.70;;
54025;SDS011;74404;50.662;3.398;2024-03-25T09:17:03;19.38;;;8.40;;
54025;SDS011;74404;50.662;3.398;2024-03-25T09:19:29;18.13;;;9.00;;
54025;SDS011;74404;50.662;3.398;2024-03-25T09:21:55;18.63;;;8.60;;
54025;SDS011;74404;50.662;3.398;2024-03-25T09:24:20;20.77;;;9.75;;
54025;SDS011;74404;50.662;3.398;2024-03-25T09:26:46;21.15;;;11.38;;
54025;SDS011;74404;50.662;3.398;2024-03-25T09:29:15;21.92;;;11.02;;
54025;SDS011;74404;50.662;3.398;2024-03-25T09:31:41;20.65;;;11.02;;
54025;SDS011;74404;50.662;3.398;2024-03-25T09:34:07;22.77;;;12.55;;
54025;SDS011;74404;50.662;3.398;2024-03-25T09:36:33;25.63;;;12.30;;
54025;SDS011;74404;50.662;3.398;2024-03-25T09:38:58;25.58;;;13.07;;
54025;SDS011;74404;50.662;3.398;2024-03-25T09:41:24;26.77;;;12.68;;
54025;SDS011;74404;50.662;3.398;2024-03-25T09:43:53;26.63;;;13.10;;
54025;SDS011;74404;50.662;3.398;2024-03-25T09:46:21;26.85;;;13.80;;
54025;SDS011;74404;50.662;3.398;2024-03-25T09:48:48;29.42;;;13.85;;
54025;SDS011;74404;50.662;3.398;2024-03-25T09:51:15;25.90;;;13.80;;
54025;SDS011;74404;50.662;3.398;2024-03-25T09:53:41;24.73;;;13.75;;
54025;SDS011;74404;50.662;3.398;2024-03-25T09:56:06;27.63;;;13.63;;
54025;SDS011;74404;50.662;3.398;2024-03-25T09:58:32;25.90;;;13.40;;
54025;SDS011;74404;50.662;3.398;2024-03-25T10:00:58;25.17;;;13.65;;
54025;SDS011;74404;50.662;3.398;2024-03-25T10:03:23;29.02;;;13.63;;
54025;SDS011;74404;50.662;3.398;2024-03-25T10:05:49;27.02;;;13.73;;
54025;SDS011;74404;50.662;3.398;2024-03-25T10:08:22;25.63;;;14.35;;
54025;SDS011;74404;50.662;3.398;2024-03-25T10:10:47;24.30;;;13.27;;
54025;SDS011;74404;50.662;3.398;2024-03-25T10:13:13;24.83;;;12.48;;
54025;SDS011;74404;50.662;3.398;2024-03-25T10:15:38;21.58;;;12.40;;
54025;SDS011;74404;50.662;3.398;2024-03-25T10:18:04;25.88;;;12.98;;
54025;SDS011;74404;50.662;3.398;2024-03-25T10:20:29;25.60;;;12.43;;
54025;SDS011;74404;50.662;3.398;2024-03-25T10:22:55;22.40;;;12.73;;
54025;SDS011;74404;50.662;3.398;2024-03-25T10:25:27;20.33;;;11.75;;
54025;SDS011;74404;50.662;3.398;2024-03-25T10:30:19;25.17;;;12.52;;
54025;SDS011;74404;50.662;3.398;2024-03-25T10:32:45;21.13;;;12.30;;
54025;SDS011;74404;50.662;3.398;2024-03-25T10:35:10;22.52;;;11.43;;
54025;SDS011;74404;50.662;3.398;2024-03-25T10:37:36;20.25;;;12.07;;
54025;SDS011;74404;50.662;3.398;2024-03-25T10:40:03;24.00;;;11.15;;
54025;SDS011;74404;50.662;3.398;2024-03-25T10:42:30;20.23;;;11.82;;
54025;SDS011;74404;50.662;3.398;2024-03-25T10:44:56;20.65;;;11.40;;
54025;SDS011;74404;50.662;3.398;2024-03-25T10:47:24;19.25;;;11.15;;
54025;SDS011;74404;50.662;3.398;2024-03-25T10:49:57;19.60;;;11.50;;
54025;SDS011;74404;50.662;3.398;2024-03-25T10:52:26;18.13;;;10.63;;
54025;SDS011;74404;50.662;3.398;2024-03-25T10:54:54;20.80;;;10.52;;
54025;SDS011;74404;50.662;3.398;2024-03-25T10:57:21;20.33;;;10.10;;
54025;SDS011;74404;50.662;3.398;2024-03-25T10:59:48;16.42;;;9.82;;
54025;SDS011;74404;50.662;3.398;2024-03-25T11:02:14;16.85;;;9.25;;
54025;SDS011;74404;50.662;3.398;2024-03-25T11:04:42;17.60;;;9.35;;
54025;SDS011;74404;50.662;3.398;2024-03-25T11:07:13;15.85;;;8.77;;
54025;SDS011;74404;50.662;3.398;2024-03-25T11:09:41;18.00;;;9.00;;
54025;SDS011;74404;50.662;3.398;2024-03-25T11:12:11;14.88;;;8.63;;
54025;SDS011;74404;50.662;3.398;2024-03-25T11:14:37;19.45;;;8.77;;
54025;SDS011;74404;50.662;3.398;2024-03-25T11:17:13;15.48;;;8.35;;
54025;SDS011;74404;50.662;3.398;2024-03-25T11:19:42;15.05;;;7.63;;
54025;SDS011;74404;50.662;3.398;2024-03-25T11:22:08;15.25;;;7.38;;
54025;SDS011;74404;50.662;3.398;2024-03-25T11:24:38;16.70;;;7.93;;
54025;SDS011;74404;50.662;3.398;2024-03-25T11:27:09;10.50;;;6.10;;
54025;SDS011;74404;50.662;3.398;2024-03-25T11:29:34;14.05;;;7.32;;
54025;SDS011;74404;50.662;3.398;2024-03-25T11:32:04;15.02;;;6.38;;
54025;SDS011;74404;50.662;3.398;2024-03-25T11:34:30;12.77;;;6.35;;
54025;SDS011;74404;50.662;3.398;2024-03-25T11:36:56;11.65;;;5.78;;
54025;SDS011;74404;50.662;3.398;2024-03-25T11:39:23;11.05;;;5.90;;
54025;SDS011;74404;50.662;3.398;2024-03-25T11:41:49;13.35;;;5.80;;
54025;SDS011;74404;50.662;3.398;2024-03-25T11:44:14;11.15;;;5.70;;
54025;SDS011;74404;50.662;3.398;2024-03-25T11:46:42;12.95;;;5.68;;
54025;SDS011;74404;50.662;3.398;2024-03-25T11:49:15;12.50;;;5.50;;
54025;SDS011;74404;50.662;3.398;2024-03-25T11:51:43;11.57;;;5.53;;
54025;SDS011;74404;50.662;3.398;2024-03-25T11:54:11;8.63;;;5.13;;
54025;SDS011;74404;50.662;3.398;2024-03-25T11:56:37;11.27;;;5.32;;
54025;SDS011;74404;50.662;3.398;2024-03-25T11:59:03;12.13;;;4.90;;
54025;SDS011;74404;50.662;3.398;2024-03-25T12:01:29;10.48;;;4.78;;
54025;SDS011;74404;50.662;3.398;2024-03-25T12:03:55;9.25;;;4.85;;
54025;SDS011;74404;50.662;3.398;2024-03-25T12:06:20;7.35;;;4.57;;
54025;SDS011;74404;50.662;3.398;2024-03-25T12:08:46;8.90;;;4.80;;
54025;SDS011;74404;50.662;3.398;2024-03-25T12:11:32;9.15;;;4.70;;
54025;SDS011;74404;50.662;3.398;2024-03-25T12:13:58;11.63;;;5.13;;
54025;SDS011;74404;50.662;3.398;2024-03-25T12:16:24;8.85;;;4.97;;
54025;SDS011;74404;50.662;3.398;2024-03-25T12:18:50;8.98;;;4.72;;
54025;SDS011;74404;50.662;3.398;2024-03-25T12:21:17;12.07;;;4.68;;
54025;SDS011;74404;50.662;3.398;2024-03-25T12:23:43;8.32;;;4.97;;
54025;SDS011;74404;50.662;3.398;2024-03-25T12:26:12;7.07;;;4.35;;
54025;SDS011;74404;50.662;3.398;2024-03-25T12:28:39;10.52;;;4.30;;
54025;SDS011;74404;50.662;3.398;2024-03-25T12:31:07;8.07;;;4.30;;
54025;SDS011;74404;50.662;3.398;2024-03-25T12:33:42;8.07;;;4.25;;
54025;SDS011;74404;50.662;3.398;2024-03-25T12:36:08;9.35;;;4.70;;
54025;SDS011;74404;50.662;3.398;2024-03-25T12:38:36;7.50;;;4.10;;
54025;SDS011;74404;50.662;3.398;2024-03-25T12:41:06;9.00;;;4.28;;
54025;SDS011;74404;50.662;3.398;2024-03-25T12:43:34;7.97;;;3.88;;
54025;SDS011;74404;50.662;3.398;2024-03-25T12:46:01;9.02;;;3.70;;
54025;SDS011;74404;50.662;3.398;2024-03-25T12:48:28;6.15;;;3.70;;
54025;SDS011;74404;50.662;3.398;2024-03-25T12:50:54;9.73;;;3.90;;
54025;SDS011;74404;50.662;3.398;2024-03-25T12:53:19;9.85;;;3.70;;
54025;SDS011;74404;50.662;3.398;2024-03-25T12:55:48;7.22;;;3.60;;
54025;SDS011;74404;50.662;3.398;2024-03-25T12:58:14;6.70;;;3.63;;
54025;SDS011;74404;50.662;3.398;2024-03-25T13:00:40;7.68;;;3.70;;
54025;SDS011;74404;50.662;3.398;2024-03-25T13:03:06;6.38;;;3.20;;
54025;SDS011;74404;50.662;3.398;2024-03-25T13:05:33;9.27;;;3.85;;
54025;SDS011;74404;50.662;3.398;2024-03-25T13:07:59;6.47;;;3.65;;
54025;SDS011;74404;50.662;3.398;2024-03-25T13:10:25;6.13;;;3.42;;
54025;SDS011;74404;50.662;3.398;2024-03-25T13:12:51;8.52;;;3.00;;
54025;SDS011;74404;50.662;3.398;2024-03-25T13:15:17;9.90;;;3.42;;
54025;SDS011;74404;50.662;3.398;2024-03-25T13:17:42;6.80;;;3.33;;
54025;SDS011;74404;50.662;3.398;2024-03-25T13:20:08;8.05;;;3.25;;
54025;SDS011;74404;50.662;3.398;2024-03-25T13:22:34;6.30;;;3.03;;
54025;SDS011;74404;50.662;3.398;2024-03-25T13:25:00;7.28;;;2.97;;
54025;SDS011;74404;50.662;3.398;2024-03-25T13:27:25;7.25;;;2.90;;
54025;SDS011;74404;50.662;3.398;2024-03-25T13:29:51;5.97;;;3.05;;
54025;SDS011;74404;50.662;3.398;2024-03-25T13:32:20;6.55;;;2.83;;
54025;SDS011;74404;50.662;3.398;2024-03-25T13:34:46;8.38;;;3.15;;
54025;SDS011;74404;50.662;3.398;2024-03-25T13:37:11;6.90;;;2.75;;
54025;SDS011;74404;50.662;3.398;2024-03-25T13:39:37;6.10;;;2.90;;
54025;SDS011;74404;50.662;3.398;2024-03-25T13:42:03;6.90;;;2.92;;
54025;SDS011;74404;50.662;3.398;2024-03-25T13:44:29;8.65;;;3.17;;
54025;SDS011;74404;50.662;3.398;2024-03-25T13:46:55;7.20;;;3.08;;
54025;SDS011;74404;50.662;3.398;2024-03-25T13:49:20;6.32;;;2.70;;
54025;SDS011;74404;50.662;3.398;2024-03-25T13:51:47;6.90;;;2.70;;
54025;SDS011;74404;50.662;3.398;2024-03-25T13:54:13;7.82;;;2.70;;
54025;SDS011;74404;50.662;3.398;2024-03-25T13:56:39;4.82;;;2.60;;
54025;SDS011;74404;50.662;3.398;2024-03-25T13:59:12;4.72;;;2.35;;
54025;SDS011;74404;50.662;3.398;2024-03-25T14:01:37;5.78;;;2.42;;
54025;SDS011;74404;50.662;3.398;2024-03-25T14:04:03;5.78;;;2.38;;
54025;SDS011;74404;50.662;3.398;2024-03-25T14:06:29;5.85;;;2.63;;
54025;SDS011;74404;50.662;3.398;2024-03-25T14:08:54;7.90;;;2.70;;
54025;SDS011;74404;50.662;3.398;2024-03-25T14:11:20;7.40;;;2.42;;
54025;SDS011;74404;50.662;3.398;2024-03-25T14:13:46;4.15;;;2.50;;
54025;SDS011;74404;50.662;3.398;2024-03-25T14:16:12;5.20;;;2.50;;
54025;SDS011;74404;50.662;3.398;2024-03-25T14:18:37;5.63;;;2.67;;
54025;SDS011;74404;50.662;3.398;2024-03-25T14:21:03;7.03;;;2.17;;
54025;SDS011;74404;50.662;3.398;2024-03-25T14:23:28;4.65;;;2.38;;
54025;SDS011;74404;50.662;3.398;2024-03-25T14:25:54;5.18;;;2.28;;
54025;SDS011;74404;50.662;3.398;2024-03-25T14:28:19;4.30;;;2.53;;
54025;SDS011;74404;50.662;3.398;2024-03-25T14:30:45;6.47;;;2.22;;